Terminal Aerodrome Forecast
Issued by NWS

Home | Current Version | Previous Version | Text Only | Print | Product List | Glossary Off
Versions: 1 2 3 4 5 6 7 8 9 10 11 12 13

972
FTUS43 KICT 062321
TAFCNU
TAF
KCNU 062321Z 0700/0724 22009KT P6SM FEW250
     FM071300 28010KT P6SM SCT250
     FM071700 31014KT P6SM BKN250
     FM071900 32020G27KT P6SM SCT250=

USA.gov is the U.S. government's official web portal to all federal, state and local government web resources and services.